Time;durP1;ratioP1;P1;durP2;ratioP2;P2;SDS_P1;SDS_P2;PMS_P1;PMS_P2;Temp;Humidity;BMP_temperature;BMP_pressure;BME280_temperature;BME280_humidity;BME280_pressure;Samples;Min_cycle;Max_cycle;Signal;HPM_P1;HPM_P2
2021/11/11 00:00:25;;;;;;;70.30;34.98;;;;;;;3.60;46.85;102423.69;1758245;80;21134;-70
2021/11/11 00:02:53;;;;;;;77.15;35.78;;;;;;;3.72;47.03;102423.00;1754906;80;21050;-70
2021/11/11 00:05:20;;;;;;;62.20;33.92;;;;;;;3.94;46.96;102424.36;1715051;82;20918;-70
2021/11/11 00:07:48;;;;;;;54.18;30.92;;;;;;;3.99;46.42;102436.56;1746171;81;20959;-69
2021/11/11 00:10:18;;;;;;;58.13;30.92;;;;;;;3.89;46.62;102437.52;1713972;83;20996;-69
2021/11/11 00:12:45;;;;;;;57.10;29.02;;;;;;;3.89;46.62;102437.52;1743241;82;21121;-70
2021/11/11 00:15:14;;;;;;;47.20;26.73;;;;;;;3.83;46.45;102441.75;1744355;82;21097;-69
2021/11/11 00:17:42;;;;;;;41.73;21.70;;;;;;;4.02;45.91;102439.80;1710228;83;20973;-69
2021/11/11 00:20:11;;;;;;;36.35;19.48;;;;;;;3.97;46.16;102428.89;1747006;81;21085;-70
2021/11/11 00:22:40;;;;;;;37.90;18.15;;;;;;;4.03;46.20;102431.13;1743520;82;21010;-69
2021/11/11 00:25:08;;;;;;;36.83;20.70;;;;;;;4.10;46.21;102428.58;1714837;82;21219;-69
2021/11/11 00:27:35;;;;;;;38.80;21.07;;;;;;;4.15;46.50;102433.01;1744917;81;20976;-69
2021/11/11 00:30:04;;;;;;;43.68;22.80;;;;;;;4.34;46.49;102434.53;1744428;81;20964;-69
2021/11/11 00:32:31;;;;;;;37.45;21.05;;;;;;;4.17;46.62;102436.81;1743278;82;21480;-69
2021/11/11 00:35:00;;;;;;;46.20;23.90;;;;;;;4.26;46.31;102446.59;1715204;82;21089;-71
2021/11/11 00:37:27;;;;;;;44.53;23.40;;;;;;;4.32;45.93;102442.84;1742034;81;22102;-70
2021/11/11 00:39:55;;;;;;;45.60;24.32;;;;;;;4.37;45.67;102435.66;1711710;83;22263;-70
2021/11/11 00:42:23;;;;;;;46.40;23.75;;;;;;;4.19;45.63;102428.97;1743343;82;21051;-70
2021/11/11 00:44:50;;;;;;;40.58;22.85;;;;;;;4.07;46.10;102426.63;1743086;82;21627;-70
2021/11/11 00:47:17;;;;;;;46.30;25.12;;;;;;;4.34;46.11;102419.87;1714190;82;22389;-70
2021/11/11 00:49:44;;;;;;;46.25;24.75;;;;;;;4.75;45.20;102417.07;1745065;81;21559;-70
2021/11/11 00:52:11;;;;;;;46.05;23.15;;;;;;;4.49;45.28;102414.27;1712826;83;21066;-70
2021/11/11 00:54:42;;;;;;;38.80;18.90;;;;;;;4.18;45.72;102411.83;1743167;82;20998;-70
2021/11/11 00:57:10;;;;;;;32.00;17.25;;;;;;;4.22;45.61;102417.18;1742352;81;21006;-69
2021/11/11 00:59:42;;;;;;;30.05;15.20;;;;;;;4.23;45.62;102415.79;1744132;82;20975;-70
2021/11/11 01:02:09;;;;;;;25.85;14.80;;;;;;;4.02;45.43;102411.88;1744565;81;22107;-68
2021/11/11 01:04:37;;;;;;;34.35;15.78;;;;;;;3.98;45.74;102399.61;1729454;82;22198;-69
2021/11/11 01:07:06;;;;;;;30.62;14.45;;;;;;;4.26;45.60;102408.34;1714271;83;20935;-70
2021/11/11 01:09:34;;;;;;;27.82;14.45;;;;;;;4.13;45.52;102410.80;1691577;82;20931;-70
2021/11/11 01:12:03;;;;;;;27.98;15.40;;;;;;;4.01;45.88;102408.44;1688206;84;21038;-69
2021/11/11 01:14:31;;;;;;;23.52;12.07;;;;;;;4.03;45.56;102411.78;1721667;82;21150;-69
2021/11/11 01:16:58;;;;;;;19.95;9.63;;;;;;;4.28;45.20;102415.52;1724060;80;20997;-68
2021/11/11 01:19:25;;;;;;;18.25;9.08;;;;;;;4.22;45.25;102415.42;1718777;82;21034;-69
2021/11/11 01:21:53;;;;;;;19.62;10.40;;;;;;;4.41;45.12;102411.78;1716048;83;21122;-69
2021/11/11 01:24:20;;;;;;;14.93;8.58;;;;;;;4.47;44.87;102408.38;1715495;83;20970;-69
2021/11/11 01:26:49;;;;;;;18.17;8.93;;;;;;;4.52;44.90;102410.22;1716186;83;21186;-68
2021/11/11 01:29:17;;;;;;;15.85;9.40;;;;;;;4.42;45.03;102406.52;1726717;80;22202;-68
2021/11/11 01:31:45;;;;;;;17.17;8.73;;;;;;;4.25;45.20;102406.69;1715656;82;21011;-69
2021/11/11 01:34:12;;;;;;;14.60;9.08;;;;;;;4.01;45.54;102401.98;1721509;81;21631;-69
2021/11/11 01:36:39;;;;;;;16.12;8.65;;;;;;;4.01;45.67;102394.71;1715295;82;21065;-69
2021/11/11 01:39:09;;;;;;;19.35;10.75;;;;;;;3.96;45.77;102401.43;1714860;83;21170;-69
2021/11/11 01:41:42;;;;;;;23.95;12.68;;;;;;;4.10;46.18;102398.90;1710418;82;21149;-69
2021/11/11 01:44:09;;;;;;;22.30;12.13;;;;;;;4.46;45.86;102403.29;1692855;82;21029;-69
2021/11/11 01:46:39;;;;;;;19.32;10.30;;;;;;;4.31;46.13;102400.67;1722065;81;22274;-70
2021/11/11 01:49:06;;;;;;;18.25;10.00;;;;;;;4.36;45.65;102412.87;1689257;82;21378;-69
2021/11/11 01:51:33;;;;;;;21.02;11.20;;;;;;;4.27;45.29;102405.66;1721413;81;21143;-70
2021/11/11 01:54:04;;;;;;;23.98;12.05;;;;;;;4.19;45.40;102405.27;1714267;83;21001;-69
2021/11/11 01:56:32;;;;;;;30.05;15.05;;;;;;;3.93;45.58;102413.20;1661628;84;22402;-69
2021/11/11 01:59:05;;;;;;;30.57;16.00;;;;;;;4.25;45.18;102414.43;1718122;82;20990;-69
2021/11/11 02:01:37;;;;;;;38.58;16.97;;;;;;;4.27;44.95;102403.53;1689317;82;21046;-70
2021/11/11 02:04:05;;;;;;;31.68;16.12;;;;;;;4.24;45.05;102397.25;1731149;80;21139;-69
2021/11/11 02:06:43;;;;;;;28.55;15.13;;;;;;;4.49;44.48;102391.49;1748542;81;20943;-71
2021/11/11 02:09:15;;;;;;;27.22;15.90;;;;;;;4.69;44.12;102390.30;1748978;80;21465;-70
2021/11/11 02:12:03;;;;;;;37.45;18.30;;;;;;;4.49;44.36;102397.95;1750206;80;21098;-69
2021/11/11 02:14:31;;;;;;;35.15;18.92;;;;;;;4.02;44.84;102404.14;1749691;81;20939;-69
2021/11/11 02:16:59;;;;;;;33.70;17.17;;;;;;;3.87;45.64;102392.94;1745593;81;21151;-68
2021/11/11 02:19:44;;;;;;;29.07;15.15;;;;;;;4.00;45.50;102386.14;1749342;80;21057;-69
2021/11/11 02:22:12;;;;;;;29.32;15.93;;;;;;;3.65;45.74;102387.68;1719910;81;21032;-69
2021/11/11 02:24:41;;;;;;;28.92;17.10;;;;;;;3.97;45.58;102382.91;1718445;82;20974;-69
2021/11/11 02:27:14;;;;;;;27.60;14.98;;;;;;;4.11;45.31;102380.37;1752102;80;21046;-70
2021/11/11 02:29:42;;;;;;;27.82;16.35;;;;;;;3.98;45.65;102389.72;1751538;81;21134;-70
2021/11/11 02:32:10;;;;;;;27.67;15.50;;;;;;;4.04;45.52;102382.47;1718125;83;21005;-70
2021/11/11 02:34:43;;;;;;;24.43;15.53;;;;;;;3.82;45.62;102382.02;1750870;81;20940;-70
2021/11/11 02:37:11;;;;;;;25.37;14.40;;;;;;;4.19;45.36;102374.76;1753302;80;21002;-70
2021/11/11 02:39:59;;;;;;;28.00;14.85;;;;;;;4.13;45.34;102374.20;1750806;80;21078;-71
2021/11/11 02:42:31;;;;;;;28.05;15.50;;;;;;;4.07;45.89;102384.05;1714388;83;21276;-71
2021/11/11 02:45:02;;;;;;;27.80;15.88;;;;;;;4.22;45.35;102387.50;1752584;80;21074;-70
2021/11/11 02:47:30;;;;;;;;;;;;;;;4.36;45.11;102383.66;1751491;81;21034;-70
2021/11/11 02:49:58;;;;;;;36.35;19.73;;;;;;;4.27;45.09;102377.25;1751574;81;20238;-71
2021/11/11 02:52:25;;;;;;;41.68;20.43;;;;;;;4.31;45.11;102389.53;1716812;83;21112;-70
2021/11/11 02:54:52;;;;;;;34.25;19.35;;;;;;;4.45;44.89;102386.97;1751416;81;21156;-70
2021/11/11 02:57:30;;;;;;;35.60;19.55;;;;;;;4.43;45.01;102375.88;1750268;81;20978;-70
2021/11/11 03:00:00;;;;;;;32.88;18.70;;;;;;;4.46;45.03;102374.42;1751766;80;21011;-70
2021/11/11 03:02:30;;;;;;;35.48;18.55;;;;;;;4.09;45.70;102371.44;1749216;81;21401;-70
2021/11/11 03:04:58;;;;;;;;;;;;;;;4.35;45.35;102366.47;1747383;80;22299;-70
2021/11/11 03:07:26;;;;;;;29.85;16.15;;;;;;;4.53;44.88;102364.09;1740589;82;21795;-69
2021/11/11 03:09:54;;;;;;;29.10;16.85;;;;;;;4.37;45.03;102364.19;1709399;83;20990;-69
2021/11/11 03:12:23;;;;;;;29.63;17.73;;;;;;;4.37;44.92;102366.77;1718993;82;21539;-71
2021/11/11 03:14:51;;;;;;;30.65;17.37;;;;;;;4.36;44.86;102359.13;1709596;83;21088;-69
2021/11/11 03:17:18;;;;;;;32.35;19.17;;;;;;;4.43;44.79;102362.15;1739203;81;21039;-71
2021/11/11 03:19:46;;;;;;;31.62;18.77;;;;;;;4.45;44.67;102366.78;1709716;82;21232;-71
2021/11/11 03:22:17;;;;;;;32.05;18.92;;;;;;;4.42;44.57;102367.78;1737152;81;21415;-71
2021/11/11 03:24:47;;;;;;;35.90;19.07;;;;;;;4.16;45.15;102360.27;1739316;81;21125;-71
2021/11/11 03:27:14;;;;;;;32.10;18.05;;;;;;;4.68;44.72;102370.56;1739111;81;21015;-69
2021/11/11 03:29:41;;;;;;;33.85;18.15;;;;;;;4.61;44.14;102370.92;1708910;82;20922;-70
2021/11/11 03:32:10;;;;;;;33.63;20.68;;;;;;;4.61;44.14;102370.92;1737468;81;20951;-70
2021/11/11 03:34:38;;;;;;;34.78;18.60;;;;;;;4.58;44.25;102376.30;1738889;81;20944;-70
2021/11/11 03:37:06;;;;;;;36.10;19.40;;;;;;;4.64;44.07;102373.79;1707213;83;20954;-69
2021/11/11 03:39:33;;;;;;;32.05;18.15;;;;;;;4.60;44.04;102364.10;1738988;81;21498;-71
2021/11/11 03:42:01;;;;;;;33.53;18.15;;;;;;;4.72;44.16;102363.81;1738577;81;21094;-70
2021/11/11 03:44:29;;;;;;;35.45;19.62;;;;;;;4.64;44.39;102358.29;1688489;82;21143;-69
2021/11/11 03:46:59;;;;;;;31.62;18.60;;;;;;;4.60;44.60;102358.11;1737060;81;21081;-70
2021/11/11 03:49:26;;;;;;;30.80;17.32;;;;;;;4.95;43.71;102359.83;1738660;81;20987;-70
2021/11/11 03:51:54;;;;;;;36.40;19.80;;;;;;;5.04;43.19;102344.23;1738876;81;21184;-70
2021/11/11 03:54:24;;;;;;;36.28;20.65;;;;;;;4.80;43.41;102343.97;1739004;81;20967;-70
2021/11/11 03:56:51;;;;;;;36.17;21.25;;;;;;;4.68;44.01;102352.48;1739627;81;21583;-69
2021/11/11 03:59:18;;;;;;;33.05;19.42;;;;;;;4.89;43.84;102356.34;1736184;81;21053;-71
2021/11/11 04:01:45;;;;;;;42.30;21.20;;;;;;;4.77;43.78;102353.20;1741964;79;20913;-70
2021/11/11 04:04:13;;;;;;;37.35;20.50;;;;;;;4.42;44.53;102363.08;1740134;80;21050;-72
2021/11/11 04:06:40;;;;;;;33.98;19.25;;;;;;;4.38;45.18;102359.84;1758592;79;21556;-72
2021/11/11 04:09:07;;;;;;;32.60;19.20;;;;;;;4.38;45.18;102359.84;1728679;80;21443;-71
2021/11/11 04:11:35;;;;;;;41.28;21.12;;;;;;;4.49;44.53;102357.45;1753009;81;21126;-71
2021/11/11 04:14:04;;;;;;;38.30;19.52;;;;;;;4.72;43.94;102344.91;1755906;81;20935;-70
2021/11/11 04:16:33;;;;;;;40.92;22.22;;;;;;;4.72;43.94;102344.91;1743085;80;21419;-71
2021/11/11 04:19:01;;;;;;;40.70;21.07;;;;;;;4.71;43.75;102334.22;1735137;80;21067;-71
2021/11/11 04:21:28;;;;;;;33.75;20.30;;;;;;;4.72;43.84;102343.62;1734907;81;21163;-71
2021/11/11 04:23:55;;;;;;;39.58;21.55;;;;;;;4.41;44.30;102337.72;1757205;79;20993;-70
2021/11/11 04:26:34;;;;;;;40.90;21.50;;;;;;;4.09;44.04;102326.27;1757808;80;21015;-71
2021/11/11 04:29:04;;;;;;;39.25;22.67;;;;;;;3.83;44.79;102329.53;1734432;80;20977;-71
2021/11/11 04:31:34;;;;;;;41.77;21.25;;;;;;;3.93;44.80;102337.09;1733701;80;20986;-71
2021/11/11 04:34:04;;;;;;;38.60;21.97;;;;;;;3.74;44.97;102350.67;1768190;79;21170;-70
2021/11/11 04:49:48;;;;;;;43.35;22.20;;;;;;;3.87;46.13;102349.91;1738223;80;21584;-68
2021/11/11 05:05:18;;;;;;;38.70;20.52;;;;;;;5.03;46.61;102386.49;1762410;78;21099;-71
2021/11/11 05:07:47;;;;;;;34.65;20.08;;;;;;;5.39;46.76;102394.19;1768864;78;21091;-69
2021/11/11 05:10:14;;;;;;;38.20;21.30;;;;;;;5.86;47.02;102385.95;1777330;79;22390;-68
2021/11/11 05:12:43;;;;;;;35.08;20.15;;;;;;;6.40;47.15;102381.96;1770129;80;21253;-68
2021/11/11 05:15:11;;;;;;;42.55;22.32;;;;;;;6.95;46.99;102365.69;1724712;80;21055;-70
2021/11/11 05:17:40;;;;;;;40.12;23.02;;;;;;;7.12;46.21;102372.27;1731690;81;20955;-70
2021/11/11 05:20:08;;;;;;;45.78;22.20;;;;;;;7.77;45.40;102363.64;1759440;80;21398;-67
2021/11/11 05:22:35;;;;;;;36.58;20.88;;;;;;;8.51;44.95;102357.66;1754454;80;21116;-63
2021/11/11 05:25:05;;;;;;;34.67;21.23;;;;;;;9.28;44.12;102352.11;1754580;81;21112;-69
2021/11/11 05:27:35;;;;;;;35.65;20.88;;;;;;;9.87;43.71;102355.06;1756671;79;20990;-69
2021/11/11 05:30:04;;;;;;;35.58;21.37;;;;;;;9.99;43.74;102364.45;1760214;80;21096;-74
2021/11/11 05:32:33;;;;;;;36.80;22.82;;;;;;;11.23;42.24;102359.55;1756429;79;21402;-68
2021/11/11 05:35:03;;;;;;;35.95;22.20;;;;;;;12.06;40.83;102360.78;1754072;79;21062;-68
2021/11/11 05:37:30;;;;;;;32.13;21.95;;;;;;;12.51;39.39;102352.25;1755569;79;21103;-70
2021/11/11 05:39:57;;;;;;;32.95;20.70;;;;;;;12.98;38.10;102353.44;1758779;80;22437;-69
2021/11/11 05:42:25;;;;;;;31.48;19.90;;;;;;;13.35;38.01;102346.80;1760725;81;20908;-70
2021/11/11 05:44:54;;;;;;;29.07;19.62;;;;;;;13.87;36.83;102341.66;1759957;81;20987;-68
2021/11/11 05:47:21;;;;;;;32.23;21.27;;;;;;;14.28;36.24;102338.43;1762008;81;21623;-68
2021/11/11 05:49:49;;;;;;;30.17;20.15;;;;;;;15.09;35.36;102337.94;1751993;81;22561;-70
2021/11/11 05:52:16;;;;;;;30.87;21.30;;;;;;;15.68;34.49;102341.29;1755320;81;21045;-69
2021/11/11 05:54:44;;;;;;;28.47;19.43;;;;;;;15.97;33.08;102335.97;1755046;81;22094;-69
2021/11/11 05:57:12;;;;;;;30.60;20.13;;;;;;;16.29;32.13;102342.98;1756955;81;21097;-68
2021/11/11 05:59:39;;;;;;;29.83;19.27;;;;;;;16.78;31.75;102337.03;1761171;80;22489;-69
2021/11/11 06:02:11;;;;;;;30.07;20.17;;;;;;;17.33;30.82;102338.31;1742584;80;21349;-68
2021/11/11 06:04:39;;;;;;;31.53;21.87;;;;;;;17.44;30.24;102341.84;1743986;80;21361;-68
2021/11/11 06:07:06;;;;;;;30.87;21.07;;;;;;;17.44;30.24;102341.84;1749845;80;21602;-68
2021/11/11 06:09:34;;;;;;;31.03;21.93;;;;;;;17.87;29.89;102344.28;1734649;80;21579;-69
2021/11/11 06:12:03;;;;;;;30.83;20.33;;;;;;;17.81;29.65;102345.02;1736912;80;21750;-69
2021/11/11 06:14:31;;;;;;;30.97;20.60;;;;;;;17.97;29.70;102345.34;1749788;80;21494;-67
2021/11/11 06:17:06;;;;;;;26.27;19.90;;;;;;;17.74;28.93;102342.23;1735680;80;22194;-66
2021/11/11 06:19:32;;;;;;;26.17;19.87;;;;;;;17.74;28.93;102342.23;1741438;80;22468;-67
2021/11/11 06:21:59;;;;;;;25.93;19.57;;;;;;;17.74;28.97;102343.55;1754965;80;21115;-70
2021/11/11 06:24:26;;;;;;;24.57;19.47;;;;;;;18.11;28.97;102344.55;1759392;80;21006;-71
2021/11/11 06:26:53;;;;;;;28.73;20.37;;;;;;;18.09;28.47;102357.09;1755250;80;22179;-69
2021/11/11 06:29:20;;;;;;;26.47;20.47;;;;;;;18.02;28.52;102357.99;1765603;80;21026;-69
2021/11/11 06:31:49;;;;;;;28.30;19.23;;;;;;;19.15;27.04;102338.56;1742252;80;21166;-68
2021/11/11 06:34:18;;;;;;;28.30;20.10;;;;;;;19.40;26.61;102340.84;1753543;80;20925;-69
2021/11/11 06:36:47;;;;;;;24.93;18.83;;;;;;;19.41;26.31;102345.11;1743053;80;20922;-68
2021/11/11 06:39:14;;;;;;;23.73;17.17;;;;;;;19.04;26.77;102346.18;1741769;80;22061;-69
2021/11/11 06:41:41;;;;;;;22.90;16.77;;;;;;;19.15;26.33;102341.72;1738525;80;21254;-69
2021/11/11 06:44:10;;;;;;;25.20;18.23;;;;;;;18.82;26.75;102346.66;1751935;80;20946;-69
2021/11/11 06:46:38;;;;;;;22.90;16.80;;;;;;;19.05;26.64;102342.02;1755953;80;21445;-69
2021/11/11 06:49:06;;;;;;;23.17;17.47;;;;;;;19.18;26.60;102327.62;1740579;80;21483;-69
2021/11/11 06:51:33;;;;;;;23.90;16.50;;;;;;;19.61;26.23;102316.16;1747957;80;21141;-69
2021/11/11 06:54:01;;;;;;;26.00;17.47;;;;;;;19.66;26.09;102313.77;1742262;80;20984;-70
2021/11/11 06:56:29;;;;;;;26.20;19.67;;;;;;;19.67;25.76;102306.98;1737044;80;21021;-70
2021/11/11 06:58:56;;;;;;;22.77;17.20;;;;;;;19.79;25.74;102303.80;1749086;80;20974;-71
2021/11/11 07:01:23;;;;;;;26.83;18.17;;;;;;;19.93;25.34;102304.20;1729251;81;20935;-70
2021/11/11 07:03:52;;;;;;;23.80;17.10;;;;;;;20.14;25.15;102304.59;1748806;81;21141;-69
2021/11/11 07:06:19;;;;;;;24.97;17.30;;;;;;;20.30;25.12;102298.14;1731743;82;21554;-69
2021/11/11 07:08:48;;;;;;;24.20;17.93;;;;;;;20.31;25.15;102293.99;1739326;81;21125;-65
2021/11/11 07:11:15;;;;;;;24.20;18.37;;;;;;;20.08;24.96;102291.66;1740758;81;21703;-68
2021/11/11 07:13:44;;;;;;;25.57;18.63;;;;;;;20.18;25.06;102294.73;1723432;82;20940;-68
2021/11/11 07:16:11;;;;;;;24.47;17.90;;;;;;;20.70;24.10;102290.37;1745678;81;21094;-68
2021/11/11 07:18:39;;;;;;;26.83;18.63;;;;;;;20.55;24.54;102284.72;1734321;81;21048;-68
2021/11/11 07:21:06;;;;;;;26.17;19.07;;;;;;;20.56;24.33;102277.59;1745920;80;21065;-67
2021/11/11 07:23:33;;;;;;;36.37;32.37;;;;;;;20.04;24.89;102284.28;1759943;80;21018;-69
2021/11/11 07:26:00;;;;;;;26.17;18.53;;;;;;;19.93;24.92;102276.41;1767604;80;21202;-68
2021/11/11 07:28:27;;;;;;;24.83;17.27;;;;;;;20.05;24.82;102273.51;1762020;80;21143;-68
2021/11/11 07:30:54;;;;;;;27.73;19.20;;;;;;;19.62;25.57;102271.52;1747592;80;21053;-68
2021/11/11 07:33:23;;;;;;;26.30;18.93;;;;;;;19.88;25.43;102282.27;1746297;80;21056;-71
2021/11/11 07:35:51;;;;;;;26.23;18.37;;;;;;;20.14;25.45;102271.50;1747738;80;21044;-66
2021/11/11 07:38:20;;;;;;;27.07;18.47;;;;;;;20.03;25.17;102266.77;1758541;80;21082;-66
2021/11/11 07:40:46;;;;;;;25.20;17.97;;;;;;;19.79;25.43;102274.70;1758954;80;21098;-67
2021/11/11 07:43:13;;;;;;;30.00;19.07;;;;;;;20.13;24.94;102268.55;1756069;79;21134;-68
2021/11/11 07:45:43;;;;;;;23.37;17.33;;;;;;;20.68;24.49;102257.94;1762227;79;21626;-71
2021/11/11 07:48:10;;;;;;;27.57;18.97;;;;;;;20.74;24.16;102255.30;1761929;80;21191;-65
2021/11/11 07:50:39;;;;;;;26.93;20.37;;;;;;;20.89;23.87;102249.82;1751036;79;21136;-73
2021/11/11 07:53:10;;;;;;;30.00;21.57;;;;;;;20.25;24.23;102248.43;1763492;79;22385;-67
2021/11/11 07:55:35;;;;;;;23.63;16.43;;;;;;;20.11;24.29;102244.91;1761537;79;21578;-66
2021/11/11 07:58:05;;;;;;;22.07;15.87;;;;;;;20.17;24.05;102246.77;1767428;80;21029;-65
2021/11/11 08:00:32;;;;;;;22.73;15.53;;;;;;;19.63;24.37;102240.92;1767305;80;21104;-72
2021/11/11 08:02:59;;;;;;;21.53;15.27;;;;;;;19.38;24.49;102248.45;1763874;80;21105;-65
2021/11/11 08:05:26;;;;;;;20.67;14.00;;;;;;;19.07;24.81;102239.56;1759864;81;21779;-67
2021/11/11 08:07:54;;;;;;;22.67;14.90;;;;;;;18.84;25.07;102234.49;1758843;80;20966;-67
2021/11/11 08:10:22;;;;;;;20.90;14.50;;;;;;;18.95;25.19;102241.09;1755696;80;21037;-64
2021/11/11 08:12:49;;;;;;;18.60;13.10;;;;;;;18.81;25.37;102240.15;1759822;80;20888;-64
2021/11/11 08:15:19;;;;;;;17.07;12.37;;;;;;;18.51;25.41;102236.77;1753814;80;20986;-66
2021/11/11 08:17:47;;;;;;;17.43;13.27;;;;;;;18.56;25.14;102230.91;1747186;80;21151;-68
2021/11/11 08:20:15;;;;;;;18.73;12.43;;;;;;;18.36;25.05;102242.59;1752152;80;21559;-66
2021/11/11 08:22:43;;;;;;;18.93;12.30;;;;;;;18.17;25.39;102235.57;1749895;80;20977;-66
2021/11/11 08:25:10;;;;;;;20.50;13.60;;;;;;;18.34;25.46;102219.53;1750158;80;21501;-66
2021/11/11 08:27:39;;;;;;;20.60;13.70;;;;;;;18.76;25.27;102229.84;1751779;79;20989;-71
2021/11/11 08:30:09;;;;;;;19.67;13.10;;;;;;;18.62;25.42;102217.78;1754544;80;21339;-64
2021/11/11 08:32:36;;;;;;;17.50;12.00;;;;;;;18.92;25.26;102208.44;1748793;80;21033;-64
2021/11/11 08:35:05;;;;;;;19.70;12.90;;;;;;;18.93;25.09;102210.88;1754875;79;21739;-65
2021/11/11 08:37:33;;;;;;;20.03;12.83;;;;;;;18.66;25.23;102208.48;1756630;80;21038;-69
2021/11/11 08:40:00;;;;;;;17.47;12.20;;;;;;;18.67;25.41;102203.50;1755083;80;21445;-68
2021/11/11 08:42:27;;;;;;;17.07;11.43;;;;;;;19.19;25.38;102201.53;1759962;80;22762;-72
2021/11/11 08:44:54;;;;;;;15.70;10.57;;;;;;;18.70;25.79;102195.70;1757427;80;21023;-67
2021/11/11 08:47:21;;;;;;;15.53;10.00;;;;;;;19.05;25.22;102182.09;1754917;80;21719;-67
2021/11/11 08:49:52;;;;;;;14.70;10.73;;;;;;;19.05;25.22;102182.09;1758634;80;20950;-66
2021/11/11 08:52:18;;;;;;;16.73;10.20;;;;;;;18.99;24.92;102182.89;1757866;81;21607;-67
2021/11/11 08:54:49;;;;;;;16.23;11.23;;;;;;;18.78;25.16;102177.11;1753804;80;21780;-67
2021/11/11 08:57:17;;;;;;;18.53;10.40;;;;;;;18.63;25.32;102179.79;1757984;80;21640;-64
2021/11/11 08:59:51;;;;;;;15.53;10.03;;;;;;;18.83;25.02;102178.70;1757844;80;21620;-65
2021/11/11 09:02:14;;;;;;;18.70;11.03;;;;;;;19.08;24.54;102184.36;1761645;81;22142;-72
2021/11/11 09:04:43;;;;;;;14.97;10.80;;;;;;;19.00;24.58;102171.80;1754811;80;21813;-65
2021/11/11 09:07:10;;;;;;;17.30;10.33;;;;;;;19.01;24.79;102170.28;1754796;80;22152;-65
2021/11/11 09:09:37;;;;;;;16.27;10.17;;;;;;;19.04;24.43;102166.45;1755867;80;22244;-67
2021/11/11 09:12:06;;;;;;;19.17;11.13;;;;;;;19.04;24.43;102166.45;1759673;80;21415;-65
2021/11/11 09:14:34;;;;;;;15.53;9.57;;;;;;;19.25;24.08;102172.19;1755268;80;21655;-65
2021/11/11 09:17:01;;;;;;;14.27;9.33;;;;;;;19.32;24.21;102179.16;1762483;79;21450;-65
2021/11/11 09:19:30;;;;;;;16.77;9.90;;;;;;;19.18;23.93;102168.98;1773201;80;21433;-65
2021/11/11 09:21:59;;;;;;;12.90;8.63;;;;;;;19.18;23.93;102168.98;1766844;80;21462;-67
2021/11/11 09:24:26;;;;;;;14.27;8.33;;;;;;;19.13;23.67;102162.16;1761740;80;21391;-67
2021/11/11 09:26:53;;;;;;;13.97;8.03;;;;;;;19.00;23.55;102158.59;1758776;80;22376;-67
2021/11/11 09:29:22;;;;;;;13.97;7.90;;;;;;;18.61;23.81;102159.88;1755205;80;21212;-69
2021/11/11 09:31:49;;;;;;;12.07;8.10;;;;;;;18.77;23.74;102153.53;1755878;79;21372;-66
2021/11/11 09:34:16;;;;;;;13.03;8.00;;;;;;;18.23;24.32;102162.25;1756159;80;21447;-76
2021/11/11 09:36:44;;;;;;;12.17;8.13;;;;;;;18.64;24.27;102152.39;1765713;80;21730;-69
2021/11/11 09:39:11;;;;;;;13.80;8.27;;;;;;;18.66;24.15;102149.04;1761906;80;21783;-65
2021/11/11 09:41:40;;;;;;;11.60;7.10;;;;;;;19.15;23.80;102149.55;1761233;80;21777;-70
2021/11/11 09:44:08;;;;;;;12.27;7.37;;;;;;;19.04;23.69;102143.47;1758696;80;21309;-71
2021/11/11 09:46:35;;;;;;;12.67;7.50;;;;;;;19.12;23.61;102133.25;1764681;80;21292;-70
2021/11/11 09:49:03;;;;;;;13.80;7.87;;;;;;;18.98;23.93;102140.30;1769036;80;21287;-69
2021/11/11 09:51:30;;;;;;;13.90;6.63;;;;;;;19.10;23.78;102126.84;1719370;80;21979;-69
2021/11/11 09:54:06;;;;;;;12.10;7.10;;;;;;;18.94;23.81;102131.09;1755833;80;21140;-68
2021/11/11 09:59:16;;;;;;;12.67;7.00;;;;;;;19.28;23.67;102119.74;1724483;82;21213;-69
2021/11/11 10:01:46;;;;;;;11.53;6.93;;;;;;;19.56;23.17;102121.50;1765172;80;21255;-71
2021/11/11 10:04:13;;;;;;;13.30;8.53;;;;;;;19.35;23.16;102110.50;1728569;80;21151;-67
2021/11/11 10:06:41;;;;;;;14.17;8.77;;;;;;;19.27;23.48;102104.05;1762239;80;21874;-68
2021/11/11 10:09:15;;;;;;;11.60;8.00;;;;;;;19.23;23.62;102094.37;1767155;80;22231;-69
2021/11/11 10:11:51;;;;;;;14.23;8.17;;;;;;;19.08;23.85;102096.32;1725228;80;21267;-69
2021/11/11 10:14:23;;;;;;;14.53;8.00;;;;;;;18.96;23.85;102090.77;1763222;80;21579;-69
2021/11/11 10:16:59;;;;;;;16.13;7.87;;;;;;;19.05;23.55;102090.91;1767988;80;21598;-67
2021/11/11 10:19:29;;;;;;;13.40;8.00;;;;;;;19.09;23.59;102077.64;1758454;80;21275;-71
2021/11/11 10:22:06;;;;;;;14.30;8.27;;;;;;;19.12;23.39;102074.59;1757088;81;21978;-68
2021/11/11 10:24:51;;;;;;;14.13;8.73;;;;;;;18.13;24.01;102070.67;1737750;81;21675;-68
2021/11/11 10:27:33;;;;;;;14.83;8.00;;;;;;;18.56;24.06;102069.33;1762092;80;21169;-67
2021/11/11 10:30:10;;;;;;;15.53;9.30;;;;;;;18.07;24.32;102068.80;1732995;81;21720;-67
2021/11/11 10:32:56;;;;;;;14.03;7.90;;;;;;;18.32;24.58;102060.48;1758660;80;21841;-74
2021/11/11 10:35:32;;;;;;;13.80;8.77;;;;;;;18.43;24.33;102045.45;1769072;80;22362;-64
2021/11/11 10:38:06;;;;;;;13.47;8.47;;;;;;;17.87;25.13;102050.11;1727299;82;21315;-71
2021/11/11 10:40:41;;;;;;;17.27;9.40;;;;;;;18.01;25.23;102044.47;1769290;80;21268;-67
2021/11/11 10:43:15;;;;;;;14.83;8.70;;;;;;;18.30;24.86;102028.20;1759067;79;21299;-67
2021/11/11 10:45:45;;;;;;;14.33;8.97;;;;;;;18.13;24.96;102026.31;1764080;79;21272;-70
2021/11/11 10:48:17;;;;;;;14.87;8.25;;;;;;;18.41;24.69;102023.20;1725807;80;21147;-69
2021/11/11 10:50:48;;;;;;;13.93;8.10;;;;;;;18.38;24.54;102021.45;1771648;80;21483;-66
2021/11/11 10:53:22;;;;;;;35.50;16.37;;;;;;;18.26;24.45;102021.16;1760367;79;21365;-70
2021/11/11 10:55:50;;;;;;;96.70;36.37;;;;;;;18.36;24.28;102007.11;1764453;80;21055;-72
2021/11/11 10:58:22;;;;;;;120.00;60.20;;;;;;;18.16;24.08;102016.70;1728795;82;21129;-68
2021/11/11 11:00:59;;;;;;;73.00;38.13;;;;;;;18.09;23.97;102012.67;1769983;80;21237;-67
2021/11/11 11:03:42;;;;;;;358.47;138.40;;;;;;;18.14;24.13;102006.82;1723047;80;21720;-72
2021/11/11 11:06:16;;;;;;;275.43;119.80;;;;;;;18.37;24.22;101995.56;1761704;79;21521;-68
2021/11/11 11:08:50;;;;;;;57.03;32.40;;;;;;;18.45;24.07;101994.09;1752011;79;21542;-68
2021/11/11 11:11:29;;;;;;;30.37;19.57;;;;;;;18.53;24.27;102001.05;1752397;80;20978;-72
2021/11/11 11:14:02;;;;;;;18.97;10.53;;;;;;;19.12;23.59;101996.61;1722587;82;22235;-68
2021/11/11 11:16:34;;;;;;;18.30;9.60;;;;;;;19.29;23.13;101998.93;1765314;79;21248;-68
2021/11/11 11:19:12;;;;;;;15.83;8.95;;;;;;;19.16;23.36;101995.20;1769237;79;21561;-71
2021/11/11 11:21:41;;;;;;;16.83;8.53;;;;;;;19.26;23.12;101995.35;1771337;79;20967;-67
2021/11/11 11:24:12;;;;;;;17.40;9.30;;;;;;;19.22;23.05;102000.73;1765900;79;21228;-68
2021/11/11 11:26:45;;;;;;;13.58;8.13;;;;;;;19.02;23.40;101998.82;1759894;79;21639;-69
2021/11/11 11:32:30;;;;;;;15.30;7.93;;;;;;;18.88;23.59;101981.27;1757593;80;21254;-67
2021/11/11 11:34:56;;;;;;;15.70;8.90;;;;;;;18.79;23.45;101980.61;1730284;80;21128;-68
2021/11/11 11:37:29;;;;;;;24.47;12.43;;;;;;;18.54;23.50;101972.30;1736883;80;21051;-67
2021/11/11 11:40:01;;;;;;;23.27;11.03;;;;;;;18.61;23.81;101963.91;1759257;80;21418;-68
2021/11/11 11:42:34;;;;;;;13.90;7.57;;;;;;;18.55;23.85;101956.75;1763220;81;21254;-66
2021/11/11 11:45:09;;;;;;;16.73;8.70;;;;;;;18.21;24.10;101958.36;1761818;81;21220;-67
2021/11/11 11:47:41;;;;;;;12.43;6.70;;;;;;;18.51;23.94;101956.84;1735552;80;21876;-70
2021/11/11 11:50:19;;;;;;;12.53;7.47;;;;;;;18.24;24.00;101955.84;1754706;80;21114;-68
2021/11/11 11:52:55;;;;;;;13.57;6.63;;;;;;;18.24;23.75;101946.09;1694698;83;21946;-67
2021/11/11 11:58:00;;;;;;;17.33;9.03;;;;;;;18.13;24.01;101950.58;1787948;78;21021;-71